createdAt,value
2023-04-20T00:00:50.440Z,54.06
2023-04-20T00:03:22.138Z,53.82
2023-04-20T00:05:50.216Z,53.88
2023-04-20T00:08:18.848Z,53.71
2023-04-20T00:10:47.012Z,53.88
2023-04-20T00:13:14.992Z,53.70
2023-04-20T00:15:42.933Z,53.66
2023-04-20T00:18:11.521Z,53.70
2023-04-20T00:20:39.453Z,53.72
2023-04-20T00:23:07.810Z,53.84
2023-04-20T00:25:36.398Z,53.63
2023-04-20T00:28:05.214Z,53.44
2023-04-20T00:30:34.959Z,53.20
2023-04-20T00:33:03.124Z,53.33
2023-04-20T00:35:31.212Z,53.28
2023-04-20T00:37:59.263Z,53.28
2023-04-20T00:40:27.188Z,53.38
2023-04-20T00:42:55.073Z,53.45
2023-04-20T00:45:24.598Z,53.30
2023-04-20T00:47:52.531Z,53.31
2023-04-20T00:50:21.877Z,53.53
2023-04-20T00:52:49.831Z,53.59
2023-04-20T00:55:19.237Z,53.52
2023-04-20T00:57:47.102Z,53.53
2023-04-20T01:00:15.188Z,53.56
2023-04-20T01:02:43.943Z,53.68
2023-04-20T01:05:12.375Z,53.49
2023-04-20T01:07:41.029Z,53.57
2023-04-20T01:10:09.310Z,53.72
2023-04-20T01:12:40.541Z,53.54
2023-04-20T01:15:09.063Z,53.55
2023-04-20T01:17:39.748Z,53.58
2023-04-20T01:20:09.378Z,53.69
2023-04-20T01:22:50.283Z,53.73
2023-04-20T01:25:18.372Z,53.85
2023-04-20T01:27:47.815Z,53.96
2023-04-20T01:30:15.813Z,53.97
2023-04-20T01:32:43.845Z,54.13
2023-04-20T01:35:12.244Z,54.21
2023-04-20T01:37:40.608Z,54.47
2023-04-20T01:40:09.947Z,54.58
2023-04-20T01:42:38.309Z,54.68
2023-04-20T01:45:07.216Z,54.69
2023-04-20T01:47:36.724Z,54.97
2023-04-20T01:50:05.102Z,55.11
2023-04-20T01:52:33.063Z,55.28
2023-04-20T01:55:01.052Z,55.48
2023-04-20T01:57:29.094Z,55.29
2023-04-20T01:59:57.046Z,55.36
2023-04-20T02:02:25.003Z,55.40
2023-04-20T02:04:53.979Z,55.40
2023-04-20T02:07:21.997Z,55.47
2023-04-20T02:09:49.945Z,55.43
2023-04-20T02:12:17.889Z,55.51
2023-04-20T02:14:45.711Z,55.49
2023-04-20T02:17:15.645Z,55.61
2023-04-20T02:19:43.867Z,55.80
2023-04-20T02:22:11.675Z,55.79
2023-04-20T02:24:39.497Z,55.92
2023-04-20T02:27:07.514Z,55.96
2023-04-20T02:29:35.614Z,55.95
2023-04-20T02:32:03.819Z,56.13
2023-04-20T02:34:31.584Z,55.83
2023-04-20T02:36:59.553Z,55.44
2023-04-20T02:39:27.414Z,55.42
2023-04-20T02:41:56.110Z,55.60
2023-04-20T02:44:24.680Z,55.50
2023-04-20T02:46:52.746Z,55.53
2023-04-20T02:49:21.171Z,55.57
2023-04-20T02:51:49.238Z,55.48
2023-04-20T02:54:17.084Z,55.52
2023-04-20T02:56:45.350Z,55.53
2023-04-20T02:59:13.326Z,55.55
2023-04-20T03:01:59.617Z,55.64
2023-04-20T03:04:27.965Z,55.37
2023-04-20T03:07:01.420Z,55.33
2023-04-20T03:09:31.265Z,55.43
2023-04-20T03:11:59.072Z,55.47
2023-04-20T03:14:56.081Z,55.66
2023-04-20T03:17:30.770Z,55.53
2023-04-20T03:19:58.711Z,55.44
2023-04-20T03:22:26.806Z,55.47
2023-04-20T03:24:57.291Z,55.31
2023-04-20T03:27:40.416Z,55.11
2023-04-20T03:30:12.420Z,55.03
2023-04-20T03:32:42.043Z,54.78
2023-04-20T03:35:10.397Z,54.81
2023-04-20T03:37:38.402Z,54.52
2023-04-20T03:40:08.700Z,54.75
2023-04-20T03:42:37.679Z,54.53
2023-04-20T03:45:06.790Z,54.40
2023-04-20T03:47:35.165Z,54.14
2023-04-20T03:50:03.263Z,53.97
2023-04-20T03:52:31.459Z,53.87
2023-04-20T03:55:01.898Z,53.87
2023-04-20T03:57:29.896Z,53.87
2023-04-20T03:59:57.784Z,53.91
2023-04-20T04:02:27.248Z,53.77
2023-04-20T04:04:55.688Z,53.67
2023-04-20T04:07:24.174Z,53.82
2023-04-20T04:09:52.143Z,53.59
2023-04-20T04:12:20.023Z,53.70
2023-04-20T04:14:48.509Z,54.11
2023-04-20T04:17:17.378Z,53.85
2023-04-20T04:21:13.536Z,53.94
2023-04-20T04:23:43.816Z,53.93
2023-04-20T04:26:24.818Z,53.87
2023-04-20T04:28:53.539Z,53.98
2023-04-20T04:31:23.691Z,54.01
2023-04-20T04:33:52.312Z,54.26
2023-04-20T04:36:27.999Z,55.30
2023-04-20T04:38:57.520Z,56.52
2023-04-20T04:41:25.985Z,57.19
2023-04-20T04:43:54.838Z,57.98
2023-04-20T04:46:27.799Z,58.78
2023-04-20T04:49:01.256Z,59.19
2023-04-20T04:51:29.458Z,59.87
2023-04-20T04:53:57.402Z,60.29
2023-04-20T04:56:25.741Z,60.95
2023-04-20T04:58:53.586Z,61.45
2023-04-20T05:01:21.471Z,61.87
2023-04-20T05:03:49.707Z,61.84
2023-04-20T05:06:17.689Z,62.30
2023-04-20T05:08:46.453Z,62.49
2023-04-20T05:11:14.428Z,62.49
2023-04-20T05:13:42.615Z,62.33
2023-04-20T05:16:11.381Z,62.59
2023-04-20T05:18:39.558Z,63.06
2023-04-20T05:21:07.424Z,63.60
2023-04-20T05:23:36.302Z,63.94
2023-04-20T05:26:04.550Z,64.08
2023-04-20T05:28:35.825Z,63.87
2023-04-20T05:31:03.620Z,63.69
2023-04-20T05:33:31.653Z,63.74
2023-04-20T05:35:59.662Z,63.95
2023-04-20T05:38:28.009Z,64.37
2023-04-20T05:40:56.132Z,64.64
2023-04-20T05:43:24.048Z,65.26
2023-04-20T05:45:52.125Z,65.97
2023-04-20T05:48:20.551Z,66.36
2023-04-20T05:50:48.398Z,67.17
2023-04-20T05:53:16.225Z,68.15
2023-04-20T05:55:44.198Z,69.18
2023-04-20T05:58:12.331Z,70.34
2023-04-20T06:00:40.803Z,71.78
2023-04-20T06:03:09.030Z,73.35
2023-04-20T06:05:37.482Z,74.73
2023-04-20T06:08:05.969Z,75.75
2023-04-20T06:10:34.823Z,76.84
2023-04-20T06:13:02.755Z,77.87
2023-04-20T06:15:30.946Z,78.70
2023-04-20T06:17:59.017Z,79.60
2023-04-20T06:20:26.972Z,80.31
2023-04-20T06:22:55.596Z,80.70
2023-04-20T06:25:23.494Z,81.10
2023-04-20T06:27:52.801Z,81.50
2023-04-20T06:30:20.991Z,81.22
2023-04-20T06:32:49.196Z,81.41
2023-04-20T06:35:17.150Z,81.18
2023-04-20T06:37:45.623Z,81.59
2023-04-20T06:40:16.153Z,81.78
2023-04-20T06:42:45.781Z,81.94
2023-04-20T06:45:13.800Z,82.00
2023-04-20T06:47:41.824Z,82.11
2023-04-20T06:50:10.217Z,81.59
2023-04-20T06:52:39.007Z,80.24
2023-04-20T06:55:07.470Z,79.91
2023-04-20T06:57:35.552Z,79.52
2023-04-20T07:00:03.973Z,78.93
2023-04-20T07:02:50.793Z,77.94
2023-04-20T07:05:19.087Z,76.40
2023-04-20T07:07:47.200Z,75.82
2023-04-20T07:10:15.530Z,75.35
2023-04-20T07:12:44.119Z,75.04
2023-04-20T07:15:12.794Z,74.52
2023-04-20T07:17:40.870Z,74.04
2023-04-20T07:20:09.582Z,74.11
2023-04-20T07:22:38.444Z,74.98
2023-04-20T07:25:07.762Z,74.94
2023-04-20T07:27:37.561Z,74.70
2023-04-20T07:30:07.223Z,74.46
2023-04-20T07:32:36.098Z,74.55
2023-04-20T07:35:04.662Z,74.76
2023-04-20T07:37:33.335Z,75.05
2023-04-20T07:40:02.033Z,75.72
2023-04-20T07:42:31.579Z,75.78
2023-04-20T07:44:59.499Z,75.87
2023-04-20T07:47:27.720Z,75.96
2023-04-20T07:49:57.576Z,75.69
2023-04-20T07:52:25.992Z,74.96
2023-04-20T07:54:53.940Z,74.69
2023-04-20T07:57:21.819Z,73.97
2023-04-20T07:59:49.756Z,73.25
2023-04-20T08:02:17.943Z,72.75
2023-04-20T08:04:46.679Z,72.23
2023-04-20T08:07:15.139Z,72.03
2023-04-20T08:09:43.199Z,71.75
2023-04-20T08:12:12.267Z,71.73
2023-04-20T08:14:41.311Z,71.83
2023-04-20T08:17:09.375Z,71.79
2023-04-20T08:19:37.491Z,71.25
2023-04-20T08:22:05.768Z,71.65
2023-04-20T08:24:34.445Z,71.34
2023-04-20T08:27:02.353Z,71.38
2023-04-20T08:29:30.930Z,71.50
2023-04-20T08:31:58.903Z,72.37
2023-04-20T08:34:27.199Z,73.62
2023-04-20T08:36:55.651Z,74.69
2023-04-20T08:39:24.482Z,75.79
2023-04-20T08:41:55.561Z,76.23
2023-04-20T08:44:24.478Z,77.07
2023-04-20T08:46:52.352Z,77.96
2023-04-20T08:49:21.217Z,78.55
2023-04-20T08:51:49.413Z,79.26
2023-04-20T08:54:17.866Z,79.57
2023-04-20T08:56:47.145Z,79.79
2023-04-20T08:59:16.365Z,80.62
2023-04-20T09:01:44.689Z,81.13
2023-04-20T09:04:27.018Z,81.50
2023-04-20T09:06:55.897Z,82.00
2023-04-20T09:09:25.279Z,82.61
2023-04-20T09:12:07.656Z,83.66
2023-04-20T09:14:47.085Z,84.85
2023-04-20T09:17:16.033Z,85.62
2023-04-20T09:19:44.724Z,86.81
2023-04-20T09:22:12.745Z,87.79
2023-04-20T09:24:41.478Z,88.44
2023-04-20T09:27:22.648Z,89.32
2023-04-20T09:30:00.418Z,89.84
2023-04-20T09:32:29.595Z,90.51
2023-04-20T09:34:57.629Z,90.65
2023-04-20T09:37:25.791Z,91.06
2023-04-20T09:39:55.981Z,91.13
2023-04-20T09:42:23.792Z,91.05
2023-04-20T09:44:51.543Z,91.04
2023-04-20T09:47:19.683Z,90.95
2023-04-20T09:49:47.798Z,90.74
2023-04-20T09:52:17.342Z,90.69
2023-04-20T09:54:45.452Z,90.68
2023-04-20T09:57:14.045Z,89.88
2023-04-20T09:59:46.790Z,89.58
2023-04-20T10:02:15.022Z,89.51
2023-04-20T10:04:58.717Z,89.97
2023-04-20T10:07:31.853Z,90.15
2023-04-20T10:10:11.334Z,90.36
2023-04-20T10:12:54.615Z,89.84
2023-04-20T10:15:24.278Z,89.18
2023-04-20T10:17:53.491Z,88.49
2023-04-20T10:20:26.406Z,88.35
2023-04-20T10:23:06.743Z,88.09
2023-04-20T10:25:34.509Z,87.44
2023-04-20T10:28:05.492Z,87.26
2023-04-20T10:30:33.588Z,86.85
2023-04-20T10:33:03.373Z,86.25
2023-04-20T10:35:51.224Z,86.16
2023-04-20T10:38:30.480Z,86.36
2023-04-20T10:41:12.134Z,86.10
2023-04-20T10:43:43.351Z,86.48
2023-04-20T10:46:18.287Z,86.50
2023-04-20T10:48:50.380Z,86.58
2023-04-20T10:51:18.694Z,86.99
2023-04-20T10:53:46.510Z,86.67
2023-04-20T10:56:14.421Z,86.26
2023-04-20T10:58:43.026Z,86.08
2023-04-20T11:01:11.177Z,85.49
2023-04-20T11:03:39.149Z,84.07
2023-04-20T11:06:07.732Z,83.74
2023-04-20T11:08:43.328Z,83.63
2023-04-20T11:11:21.316Z,83.57
2023-04-20T11:13:49.198Z,83.99
2023-04-20T11:16:18.292Z,84.21
2023-04-20T11:18:52.099Z,84.37
2023-04-20T11:21:21.880Z,84.92
2023-04-20T11:23:50.293Z,84.98
2023-04-20T11:26:18.869Z,84.43
2023-04-20T11:28:56.477Z,84.90
2023-04-20T11:31:26.365Z,85.03
2023-04-20T11:33:54.377Z,86.65
2023-04-20T11:36:23.589Z,87.39
2023-04-20T11:38:51.490Z,88.42
2023-04-20T11:41:19.473Z,89.13
2023-04-20T11:43:47.403Z,89.75
2023-04-20T11:46:17.156Z,90.56
2023-04-20T11:48:45.927Z,90.99
2023-04-20T11:51:14.323Z,91.24
2023-04-20T11:53:42.746Z,91.67
2023-04-20T11:56:10.815Z,91.64
2023-04-20T11:58:38.674Z,91.34
2023-04-20T12:01:06.864Z,91.52
2023-04-20T12:03:35.119Z,90.86
2023-04-20T12:06:04.872Z,90.42
2023-04-20T12:08:33.129Z,89.18
2023-04-20T12:11:00.985Z,88.15
2023-04-20T12:13:29.060Z,87.18
2023-04-20T12:15:56.960Z,86.13
2023-04-20T12:18:25.198Z,85.15
2023-04-20T12:20:53.268Z,84.54
2023-04-20T12:23:21.197Z,82.88
2023-04-20T12:25:49.622Z,82.07
2023-04-20T12:28:17.834Z,81.79
2023-04-20T12:30:46.205Z,80.90
2023-04-20T12:33:14.373Z,79.78
2023-04-20T12:35:42.438Z,79.44
2023-04-20T12:38:11.769Z,79.02
2023-04-20T12:40:41.134Z,78.75
2023-04-20T12:43:09.220Z,77.62
2023-04-20T12:45:37.119Z,76.85
2023-04-20T12:48:05.204Z,75.35
2023-04-20T12:50:33.657Z,74.73
2023-04-20T12:53:02.573Z,74.42
2023-04-20T12:55:30.774Z,73.19
2023-04-20T12:57:58.846Z,72.05
2023-04-20T13:00:26.795Z,72.33
2023-04-20T13:02:54.892Z,71.76
2023-04-20T13:05:22.976Z,71.36
2023-04-20T13:07:51.645Z,71.10
2023-04-20T13:10:19.490Z,70.81
2023-04-20T13:12:48.235Z,70.01
2023-04-20T13:15:31.807Z,69.50
2023-04-20T13:18:06.651Z,69.48
2023-04-20T13:20:34.860Z,68.34
2023-04-20T13:23:03.630Z,67.53
2023-04-20T13:25:34.653Z,65.66
2023-04-20T13:28:03.105Z,64.37
2023-04-20T13:30:30.993Z,64.54
2023-04-20T13:32:58.951Z,64.19
2023-04-20T13:35:26.826Z,64.76
2023-04-20T13:37:54.818Z,64.77
2023-04-20T13:40:22.834Z,65.16
2023-04-20T13:42:50.838Z,64.67
2023-04-20T13:45:18.795Z,63.61
2023-04-20T13:47:46.947Z,64.01
2023-04-20T13:50:14.834Z,63.03
2023-04-20T13:52:42.698Z,61.29
2023-04-20T13:55:11.256Z,60.82
2023-04-20T13:57:39.553Z,61.03
2023-04-20T14:00:08.342Z,61.17
2023-04-20T14:02:36.887Z,61.53
2023-04-20T14:05:06.417Z,61.53
2023-04-20T14:07:34.470Z,61.30
2023-04-20T14:10:02.816Z,61.74
2023-04-20T14:12:33.690Z,61.28
2023-04-20T14:15:02.505Z,61.22
2023-04-20T14:17:30.736Z,61.57
2023-04-20T14:19:59.496Z,61.18
2023-04-20T14:22:32.188Z,60.92
2023-04-20T14:25:00.496Z,60.41
2023-04-20T14:27:28.387Z,60.63
2023-04-20T14:29:56.430Z,61.11
2023-04-20T14:32:24.385Z,61.29
2023-04-20T14:34:52.316Z,62.59
2023-04-20T14:37:20.303Z,63.82
2023-04-20T14:39:48.655Z,64.50
2023-04-20T14:42:16.513Z,64.87
2023-04-20T14:44:44.487Z,65.34
2023-04-20T14:47:12.347Z,65.67
2023-04-20T14:49:40.236Z,65.90
2023-04-20T14:52:08.097Z,65.68
2023-04-20T14:54:36.677Z,66.19
2023-04-20T14:57:04.605Z,66.44
2023-04-20T14:59:33.909Z,65.95
2023-04-20T15:02:03.513Z,65.31
2023-04-20T15:04:32.557Z,65.17
2023-04-20T15:07:00.761Z,63.92
2023-04-20T15:09:28.937Z,63.27
2023-04-20T15:11:57.170Z,62.71
2023-04-20T15:14:25.194Z,61.48
2023-04-20T15:16:53.256Z,61.36
2023-04-20T15:19:22.717Z,60.71
2023-04-20T15:21:50.625Z,60.39
2023-04-20T15:24:18.754Z,59.88
2023-04-20T15:26:46.999Z,59.48
2023-04-20T15:29:14.990Z,59.43
2023-04-20T15:31:45.593Z,59.27
2023-04-20T15:34:15.596Z,59.03
2023-04-20T15:36:43.764Z,58.81
2023-04-20T15:39:12.517Z,58.34
2023-04-20T15:41:40.459Z,58.19
2023-04-20T15:44:08.302Z,58.24
2023-04-20T15:46:37.601Z,58.32
2023-04-20T15:49:05.561Z,58.72
2023-04-20T15:51:34.429Z,58.96
2023-04-20T15:54:02.264Z,59.16
2023-04-20T15:56:31.097Z,59.54
2023-04-20T15:58:58.981Z,58.94
2023-04-20T16:01:26.957Z,59.84
2023-04-20T16:03:55.163Z,59.59
2023-04-20T16:06:24.203Z,58.67
2023-04-20T16:08:54.014Z,58.72
2023-04-20T16:11:22.578Z,58.94
2023-04-20T16:13:50.591Z,58.75
2023-04-20T16:16:18.946Z,58.89
2023-04-20T16:18:48.185Z,59.09
2023-04-20T16:21:16.175Z,59.34
2023-04-20T16:23:44.153Z,60.27
2023-04-20T16:26:11.981Z,59.89
2023-04-20T16:28:39.841Z,60.76
2023-04-20T16:31:07.753Z,61.04
2023-04-20T16:33:36.607Z,61.34
2023-04-20T16:36:05.148Z,62.02
2023-04-20T16:39:13.352Z,62.24
2023-04-20T16:41:41.369Z,62.86
2023-04-20T16:44:09.450Z,63.81
2023-04-20T16:46:37.709Z,64.65
2023-04-20T16:49:05.589Z,65.73
2023-04-20T16:51:33.801Z,66.44
2023-04-20T16:54:01.894Z,67.17
2023-04-20T16:56:29.865Z,67.82
2023-04-20T16:58:58.260Z,68.48
2023-04-20T17:01:26.117Z,69.42
2023-04-20T17:03:54.218Z,70.08
2023-04-20T17:06:22.346Z,70.93
2023-04-20T17:08:50.447Z,71.61
2023-04-20T17:11:19.629Z,72.37
2023-04-20T17:13:47.701Z,73.03
2023-04-20T17:16:16.490Z,73.71
2023-04-20T17:18:44.980Z,74.25
2023-04-20T17:21:12.932Z,74.54
2023-04-20T17:23:41.284Z,74.69
2023-04-20T17:26:09.179Z,75.17
2023-04-20T17:28:37.017Z,75.74
2023-04-20T17:31:04.824Z,76.04
2023-04-20T17:33:32.768Z,76.14
2023-04-20T17:36:01.356Z,76.40
2023-04-20T17:38:29.249Z,76.64
2023-04-20T17:40:57.158Z,77.25
2023-04-20T17:43:25.102Z,77.62
2023-04-20T17:45:53.066Z,78.02
2023-04-20T17:48:20.959Z,78.64
2023-04-20T17:50:49.737Z,79.16
2023-04-20T17:53:17.686Z,79.64
2023-04-20T17:55:45.886Z,80.17
2023-04-20T17:58:13.808Z,80.61
2023-04-20T18:00:43.070Z,81.49
2023-04-20T18:03:11.232Z,82.51
2023-04-20T18:05:39.313Z,83.27
2023-04-20T18:08:07.417Z,83.96
2023-04-20T18:10:35.787Z,84.27
2023-04-20T18:13:03.561Z,84.73
2023-04-20T18:15:31.460Z,84.94
2023-04-20T18:17:59.546Z,84.75
2023-04-20T18:20:27.534Z,84.26
2023-04-20T18:22:55.518Z,83.80
2023-04-20T18:25:23.478Z,83.47
2023-04-20T18:27:51.373Z,83.27
2023-04-20T18:30:19.209Z,83.10
2023-04-20T18:32:47.177Z,83.43
2023-04-20T18:35:15.721Z,83.55
2023-04-20T18:37:43.570Z,83.51
2023-04-20T18:40:13.079Z,83.59
2023-04-20T18:42:42.639Z,83.46
2023-04-20T18:45:13.207Z,83.09
2023-04-20T18:47:41.264Z,82.52
2023-04-20T18:50:10.508Z,82.10
2023-04-20T18:52:38.490Z,82.04
2023-04-20T18:55:07.908Z,82.22
2023-04-20T18:57:35.822Z,82.47
2023-04-20T19:00:08.443Z,82.64
2023-04-20T19:02:37.116Z,82.82
2023-04-20T19:05:05.906Z,83.08
2023-04-20T19:07:33.764Z,83.10
2023-04-20T19:10:01.802Z,83.14
2023-04-20T19:12:30.078Z,82.96
2023-04-20T19:14:57.958Z,82.86
2023-04-20T19:17:26.178Z,82.90
2023-04-20T19:19:55.317Z,83.13
2023-04-20T19:22:23.382Z,83.78
2023-04-20T19:24:51.448Z,84.29
2023-04-20T19:27:19.536Z,84.48
2023-04-20T19:29:47.731Z,84.82
2023-04-20T19:32:15.691Z,85.10
2023-04-20T19:34:43.966Z,85.26
2023-04-20T19:37:12.145Z,85.51
2023-04-20T19:39:40.352Z,85.36
2023-04-20T19:42:08.179Z,85.67
2023-04-20T19:44:36.124Z,85.81
2023-04-20T19:47:04.329Z,86.01
2023-04-20T19:49:32.691Z,86.18
2023-04-20T19:52:00.791Z,86.52
2023-04-20T19:54:28.870Z,86.53
2023-04-20T19:56:57.785Z,86.49
2023-04-20T19:59:26.815Z,86.55
2023-04-20T20:01:54.779Z,86.52
2023-04-20T20:04:22.899Z,86.25
2023-04-20T20:06:51.399Z,86.05
2023-04-20T20:09:23.130Z,85.84
2023-04-20T20:11:51.947Z,85.78
2023-04-20T20:14:19.974Z,85.45
2023-04-20T20:16:49.261Z,85.18
2023-04-20T20:19:25.003Z,84.94
2023-04-20T20:21:53.758Z,85.00
2023-04-20T20:24:23.181Z,85.01
2023-04-20T20:26:51.218Z,85.07
2023-04-20T20:29:19.614Z,85.07
2023-04-20T20:31:47.857Z,85.18
2023-04-20T20:34:16.106Z,85.42
2023-04-20T20:36:45.950Z,85.47
2023-04-20T20:39:14.394Z,85.46
2023-04-20T20:41:42.449Z,85.38
2023-04-20T20:44:10.503Z,85.32
2023-04-20T20:46:38.809Z,85.36
2023-04-20T20:49:06.933Z,85.41
2023-04-20T20:51:35.164Z,85.26
2023-04-20T20:54:03.355Z,85.06
2023-04-20T20:56:31.541Z,84.71
2023-04-20T20:58:59.652Z,84.65
2023-04-20T21:01:27.539Z,84.73
2023-04-20T21:03:55.961Z,84.73
2023-04-20T21:06:23.940Z,84.71
2023-04-20T21:08:51.790Z,84.52
2023-04-20T21:11:19.760Z,84.17
2023-04-20T21:13:47.736Z,83.71
2023-04-20T21:16:15.671Z,83.31
2023-04-20T21:18:43.611Z,83.09
2023-04-20T21:21:12.816Z,82.90
2023-04-20T21:23:40.915Z,82.88
2023-04-20T21:26:09.164Z,82.75
2023-04-20T21:28:37.121Z,82.48
2023-04-20T21:31:05.168Z,82.47
2023-04-20T21:33:36.095Z,82.44
2023-04-20T21:36:04.337Z,82.40
2023-04-20T21:38:33.823Z,82.46
2023-04-20T21:41:01.751Z,82.44
2023-04-20T21:43:29.762Z,82.59
2023-04-20T21:45:57.691Z,82.52
2023-04-20T21:48:25.803Z,82.55
2023-04-20T21:50:53.725Z,82.36
2023-04-20T21:53:21.701Z,82.52
2023-04-20T21:55:49.670Z,82.45
2023-04-20T21:58:18.715Z,82.38
2023-04-20T22:00:46.829Z,82.35
2023-04-20T22:03:14.830Z,81.99
2023-04-20T22:05:43.173Z,81.61
2023-04-20T22:08:11.683Z,81.24
2023-04-20T22:10:40.128Z,81.28
2023-04-20T22:13:08.088Z,81.35
2023-04-20T22:15:36.330Z,81.28
2023-04-20T22:18:05.641Z,81.11
2023-04-20T22:20:33.787Z,80.95
2023-04-20T22:23:01.889Z,81.02
2023-04-20T22:25:29.946Z,81.14
2023-04-20T22:27:58.080Z,81.02
2023-04-20T22:30:26.037Z,81.24
2023-04-20T22:32:54.111Z,81.52
2023-04-20T22:35:22.461Z,81.95
2023-04-20T22:37:50.534Z,82.32
2023-04-20T22:40:18.727Z,82.67
2023-04-20T22:42:46.690Z,83.15
2023-04-20T22:45:14.913Z,83.40
2023-04-20T22:47:43.008Z,83.78
2023-04-20T22:50:12.485Z,84.22
2023-04-20T22:52:40.620Z,84.60
2023-04-20T22:55:09.398Z,84.91
2023-04-20T22:57:37.375Z,84.98
2023-04-20T23:00:07.979Z,85.22
2023-04-20T23:02:37.560Z,85.38
2023-04-20T23:05:06.591Z,85.58
2023-04-20T23:07:35.927Z,85.96
2023-04-20T23:10:04.757Z,86.22
2023-04-20T23:12:33.585Z,86.77
2023-04-20T23:15:01.514Z,87.03
2023-04-20T23:17:29.753Z,87.29
2023-04-20T23:19:58.410Z,87.44
2023-04-20T23:22:26.855Z,87.36
2023-04-20T23:24:57.347Z,87.45
2023-04-20T23:27:25.354Z,87.40
2023-04-20T23:29:53.219Z,87.49
2023-04-20T23:32:21.211Z,87.79
2023-04-20T23:34:49.084Z,87.77
2023-04-20T23:37:16.907Z,88.04
2023-04-20T23:39:44.736Z,88.30
2023-04-20T23:42:12.654Z,88.26
2023-04-20T23:44:40.508Z,88.25
2023-04-20T23:47:08.312Z,88.00
2023-04-20T23:49:36.444Z,87.80
2023-04-20T23:52:05.063Z,87.71
2023-04-20T23:54:33.500Z,87.41
2023-04-20T23:57:02.780Z,87.08
2023-04-20T23:59:31.648Z,86.73
